Aviation Digital Data Service (ADDS)

Output produced by METARs form (2112 UTC 06 December 2019)
found at http://www.aviationweather.gov/metar/data/
 
METAR text: RJAH 062100Z VRB02KT 9999 -RA FEW020 BKN050 BKN/// 04/M02 Q1025
Conditions at: RJAH (HYAKURI (JASDF) , JP) observed 2100 UTC 06 December 2019
Temperature: 4.0°C (39°F)
Dewpoint: -2.0°C (28°F) [RH = 65%]
Pressure (altimeter): 30.27 inches Hg (1025.0 mb)
Winds: variable direction winds at 2 MPH (2 knots; 1.0 m/s)
Visibility: 6 or more miles (10+ km)
Ceiling: 5000 feet AGL
Clouds: few clouds at 2000 feet AGL
broken clouds at 5000 feet AGL
Weather: -RA  (light rain)

METAR text: RJAH 062016Z 03002KT 9999 -RA FEW020 BKN050 BKN/// 04/M02 Q1025 RMK 1CU020 6SC050 A3027
Conditions at: RJAH (HYAKURI (JASDF) , JP) observed 2016 UTC 06 December 2019
Temperature: 4.0°C (39°F)
Dewpoint: -2.0°C (28°F) [RH = 65%]
Pressure (altimeter): 30.27 inches Hg (1025.0 mb)
Winds: from the NNE (30 degrees) at 2 MPH (2 knots; 1.0 m/s)
Visibility: 6 or more miles (10+ km)
Ceiling: 5000 feet AGL
Clouds: few clouds at 2000 feet AGL
broken clouds at 5000 feet AGL
Weather: -RA  (light rain)

METAR text: RJAH 062000Z 36003KT 9999 FEW020 BKN050 BKN/// 04/M02 Q1024
Conditions at: RJAH (HYAKURI (JASDF) , JP) observed 2000 UTC 06 December 2019
Temperature: 4.0°C (39°F)
Dewpoint: -2.0°C (28°F) [RH = 65%]
Pressure (altimeter): 30.24 inches Hg (1024.0 mb)
Winds: from the N (360 degrees) at 3 MPH (3 knots; 1.5 m/s)
Visibility: 6 or more miles (10+ km)
Ceiling: 5000 feet AGL
Clouds: few clouds at 2000 feet AGL
broken clouds at 5000 feet AGL
Weather: no significant weather observed at this time

METAR text: RJAH 061900Z 36003KT 9999 FEW040 BKN050 BKN/// 04/M02 Q1025
Conditions at: RJAH (HYAKURI (JASDF) , JP) observed 1900 UTC 06 December 2019
Temperature: 4.0°C (39°F)
Dewpoint: -2.0°C (28°F) [RH = 65%]
Pressure (altimeter): 30.27 inches Hg (1025.0 mb)
Winds: from the N (360 degrees) at 3 MPH (3 knots; 1.5 m/s)
Visibility: 6 or more miles (10+ km)
Ceiling: 5000 feet AGL
Clouds: few clouds at 4000 feet AGL
broken clouds at 5000 feet AGL
Weather: no significant weather observed at this time

METAR text: RJAH 061800Z 34003KT 9999 FEW040 BKN050 BKN/// 04/M03 Q1025
Conditions at: RJAH (HYAKURI (JASDF) , JP) observed 1800 UTC 06 December 2019
Temperature: 4.0°C (39°F)
Dewpoint: -3.0°C (27°F) [RH = 60%]
Pressure (altimeter): 30.27 inches Hg (1025.0 mb)
Winds: from the NNW (340 degrees) at 3 MPH (3 knots; 1.5 m/s)
Visibility: 6 or more miles (10+ km)
Ceiling: 5000 feet AGL
Clouds: few clouds at 4000 feet AGL
broken clouds at 5000 feet AGL
Weather: no significant weather observed at this time

METAR text: RJAH 061700Z 35006KT 9999 FEW050 BKN060 BKN/// 04/M03 Q1026
Conditions at: RJAH (HYAKURI (JASDF) , JP) observed 1700 UTC 06 December 2019
Temperature: 4.0°C (39°F)
Dewpoint: -3.0°C (27°F) [RH = 60%]
Pressure (altimeter): 30.30 inches Hg (1026.0 mb)
Winds: from the N (350 degrees) at 7 MPH (6 knots; 3.1 m/s)
Visibility: 6 or more miles (10+ km)
Ceiling: 6000 feet AGL
Clouds: few clouds at 5000 feet AGL
broken clouds at 6000 feet AGL
Weather: no significant weather observed at this time

METAR text: RJAH 061600Z 02004KT 9999 FEW050 BKN060 BKN/// 03/M03 Q1025
Conditions at: RJAH (HYAKURI (JASDF) , JP) observed 1600 UTC 06 December 2019
Temperature: 3.0°C (37°F)
Dewpoint: -3.0°C (27°F) [RH = 65%]
Pressure (altimeter): 30.27 inches Hg (1025.0 mb)
Winds: from the NNE (20 degrees) at 5 MPH (4 knots; 2.1 m/s)
Visibility: 6 or more miles (10+ km)
Ceiling: 6000 feet AGL
Clouds: few clouds at 5000 feet AGL
broken clouds at 6000 feet AGL
Weather: no significant weather observed at this time

METAR text: RJAH 061500Z 36004KT 9999 FEW050 BKN060 BKN/// 03/M03 Q1025
Conditions at: RJAH (HYAKURI (JASDF) , JP) observed 1500 UTC 06 December 2019
Temperature: 3.0°C (37°F)
Dewpoint: -3.0°C (27°F) [RH = 65%]
Pressure (altimeter): 30.27 inches Hg (1025.0 mb)
Winds: from the N (360 degrees) at 5 MPH (4 knots; 2.1 m/s)
Visibility: 6 or more miles (10+ km)
Ceiling: 6000 feet AGL
Clouds: few clouds at 5000 feet AGL
broken clouds at 6000 feet AGL
Weather: no significant weather observed at this time

METAR text: RJAH 061400Z 03004KT 9999 FEW060 BKN070 BKN/// 03/M02 Q1025
Conditions at: RJAH (HYAKURI (JASDF) , JP) observed 1400 UTC 06 December 2019
Temperature: 3.0°C (37°F)
Dewpoint: -2.0°C (28°F) [RH = 70%]
Pressure (altimeter): 30.27 inches Hg (1025.0 mb)
Winds: from the NNE (30 degrees) at 5 MPH (4 knots; 2.1 m/s)
Visibility: 6 or more miles (10+ km)
Ceiling: 7000 feet AGL
Clouds: few clouds at 6000 feet AGL
broken clouds at 7000 feet AGL
Weather: no significant weather observed at this time

METAR text: RJAH 061310Z 03002KT 9999 FEW060 BKN070 BKN/// 04/M03 Q1026 RMK 1SC060 5AC070 A3033
Conditions at: RJAH (HYAKURI (JASDF) , JP) observed 1310 UTC 06 December 2019
Temperature: 4.0°C (39°F)
Dewpoint: -3.0°C (27°F) [RH = 60%]
Pressure (altimeter): 30.30 inches Hg (1026.0 mb)
Winds: from the NNE (30 degrees) at 2 MPH (2 knots; 1.0 m/s)
Visibility: 6 or more miles (10+ km)
Ceiling: 7000 feet AGL
Clouds: few clouds at 6000 feet AGL
broken clouds at 7000 feet AGL
Weather: no significant weather observed at this time

METAR text: RJAH 061300Z 01003KT 9999 SCT070 SCT/// 03/M03 Q1026
Conditions at: RJAH (HYAKURI (JASDF) , JP) observed 1300 UTC 06 December 2019
Temperature: 3.0°C (37°F)
Dewpoint: -3.0°C (27°F) [RH = 65%]
Pressure (altimeter): 30.30 inches Hg (1026.0 mb)
Winds: from the N (10 degrees) at 3 MPH (3 knots; 1.5 m/s)
Visibility: 6 or more miles (10+ km)
Ceiling: at least 12,000 feet AGL
Clouds: scattered clouds at 7000 feet AGL
Weather: no significant weather observed at this time

METAR text: RJAH 061200Z 03003KT 9999 FEW060 BKN/// 03/M03 Q1026
Conditions at: RJAH (HYAKURI (JASDF) , JP) observed 1200 UTC 06 December 2019
Temperature: 3.0°C (37°F)
Dewpoint: -3.0°C (27°F) [RH = 65%]
Pressure (altimeter): 30.30 inches Hg (1026.0 mb)
Winds: from the NNE (30 degrees) at 3 MPH (3 knots; 1.5 m/s)
Visibility: 6 or more miles (10+ km)
Ceiling: at least 12,000 feet AGL
Clouds: few clouds at 6000 feet AGL
Weather: no significant weather observed at this time

METAR text: RJAH 061100Z 35004KT 9999 FEW060 BKN/// 04/M03 Q1026
Conditions at: RJAH (HYAKURI (JASDF) , JP) observed 1100 UTC 06 December 2019
Temperature: 4.0°C (39°F)
Dewpoint: -3.0°C (27°F) [RH = 60%]
Pressure (altimeter): 30.30 inches Hg (1026.0 mb)
Winds: from the N (350 degrees) at 5 MPH (4 knots; 2.1 m/s)
Visibility: 6 or more miles (10+ km)
Ceiling: at least 12,000 feet AGL
Clouds: few clouds at 6000 feet AGL
Weather: no significant weather observed at this time

METAR text: RJAH 061000Z 01002KT 9999 FEW020 SCT180 BKN/// 05/M03 Q1026
Conditions at: RJAH (HYAKURI (JASDF) , JP) observed 1000 UTC 06 December 2019
Temperature: 5.0°C (41°F)
Dewpoint: -3.0°C (27°F) [RH = 56%]
Pressure (altimeter): 30.30 inches Hg (1026.0 mb)
Winds: from the N (10 degrees) at 2 MPH (2 knots; 1.0 m/s)
Visibility: 6 or more miles (10+ km)
Ceiling: at least 12,000 feet AGL
Clouds: few clouds at 2000 feet AGL
scattered clouds at 18000 feet AGL
Weather: no significant weather observed at this time

METAR text: RJAH 060900Z 01002KT 9999 FEW020 SCT180 BKN/// 05/M03 Q1026
Conditions at: RJAH (HYAKURI (JASDF) , JP) observed 0900 UTC 06 December 2019
Temperature: 5.0°C (41°F)
Dewpoint: -3.0°C (27°F) [RH = 56%]
Pressure (altimeter): 30.30 inches Hg (1026.0 mb)
Winds: from the N (10 degrees) at 2 MPH (2 knots; 1.0 m/s)
Visibility: 6 or more miles (10+ km)
Ceiling: at least 12,000 feet AGL
Clouds: few clouds at 2000 feet AGL
scattered clouds at 18000 feet AGL
Weather: no significant weather observed at this time

METAR text: RJAH 060800Z 01003KT 9999 FEW020 BKN/// 07/M05 Q1025
Conditions at: RJAH (HYAKURI (JASDF) , JP) observed 0800 UTC 06 December 2019
Temperature: 7.0°C (45°F)
Dewpoint: -5.0°C (23°F) [RH = 42%]
Pressure (altimeter): 30.27 inches Hg (1025.0 mb)
Winds: from the N (10 degrees) at 3 MPH (3 knots; 1.5 m/s)
Visibility: 6 or more miles (10+ km)
Ceiling: at least 12,000 feet AGL
Clouds: few clouds at 2000 feet AGL
Weather: no significant weather observed at this time

METAR text: RJAH 060700Z 03004KT 9999 FEW020 SCT180 BKN210 07/M05 Q1025
Conditions at: RJAH (HYAKURI (JASDF) , JP) observed 0700 UTC 06 December 2019
Temperature: 7.0°C (45°F)
Dewpoint: -5.0°C (23°F) [RH = 42%]
Pressure (altimeter): 30.27 inches Hg (1025.0 mb)
Winds: from the NNE (30 degrees) at 5 MPH (4 knots; 2.1 m/s)
Visibility: 6 or more miles (10+ km)
Ceiling: 21000 feet AGL
Clouds: few clouds at 2000 feet AGL
scattered clouds at 18000 feet AGL
broken clouds at 21000 feet AGL
Weather: no significant weather observed at this time

METAR text: RJAH 060600Z 36004KT 9999 FEW020 SCT180 BKN210 09/M05 Q1023
Conditions at: RJAH (HYAKURI (JASDF) , JP) observed 0600 UTC 06 December 2019
Temperature: 9.0°C (48°F)
Dewpoint: -5.0°C (23°F) [RH = 37%]
Pressure (altimeter): 30.21 inches Hg (1023.0 mb)
Winds: from the N (360 degrees) at 5 MPH (4 knots; 2.1 m/s)
Visibility: 6 or more miles (10+ km)
Ceiling: 21000 feet AGL
Clouds: few clouds at 2000 feet AGL
scattered clouds at 18000 feet AGL
broken clouds at 21000 feet AGL
Weather: no significant weather observed at this time

METAR text: RJAH 060500Z 33007KT 9999 FEW020 BKN230 10/M06 Q1024
Conditions at: RJAH (HYAKURI (JASDF) , JP) observed 0500 UTC 06 December 2019
Temperature: 10.0°C (50°F)
Dewpoint: -6.0°C (21°F) [RH = 32%]
Pressure (altimeter): 30.24 inches Hg (1024.0 mb)
Winds: from the NNW (330 degrees) at 8 MPH (7 knots; 3.6 m/s)
Visibility: 6 or more miles (10+ km)
Ceiling: 23000 feet AGL
Clouds: few clouds at 2000 feet AGL
broken clouds at 23000 feet AGL
Weather: no significant weather observed at this time

METAR text: RJAH 060400Z 33004KT 290V010 9999 FEW020 BKN230 09/M06 Q1023
Conditions at: RJAH (HYAKURI (JASDF) , JP) observed 0400 UTC 06 December 2019
Temperature: 9.0°C (48°F)
Dewpoint: -6.0°C (21°F) [RH = 34%]
Pressure (altimeter): 30.21 inches Hg (1023.0 mb)
Winds: from the NNW (330 degrees) at 5 MPH (4 knots; 2.1 m/s)
Visibility: 6 or more miles (10+ km)
Ceiling: 23000 feet AGL
Clouds: few clouds at 2000 feet AGL
broken clouds at 23000 feet AGL
Weather: no significant weather observed at this time

METAR text: RJAH 060300Z 35008KT 320V040 9999 FEW020 BKN230 09/M05 Q1023
Conditions at: RJAH (HYAKURI (JASDF) , JP) observed 0300 UTC 06 December 2019
Temperature: 9.0°C (48°F)
Dewpoint: -5.0°C (23°F) [RH = 37%]
Pressure (altimeter): 30.21 inches Hg (1023.0 mb)
Winds: from the N (350 degrees) at 9 MPH (8 knots; 4.1 m/s)
Visibility: 6 or more miles (10+ km)
Ceiling: 23000 feet AGL
Clouds: few clouds at 2000 feet AGL
broken clouds at 23000 feet AGL
Weather: no significant weather observed at this time

METAR text: RJAH 060226Z 36006KT 330V030 9999 FEW020 SCT080 08/M05 Q1023 RMK 1CU020 3AC080 A3023
Conditions at: RJAH (HYAKURI (JASDF) , JP) observed 0226 UTC 06 December 2019
Temperature: 8.0°C (46°F)
Dewpoint: -5.0°C (23°F) [RH = 39%]
Pressure (altimeter): 30.21 inches Hg (1023.0 mb)
Winds: from the N (360 degrees) at 7 MPH (6 knots; 3.1 m/s)
Visibility: 6 or more miles (10+ km)
Ceiling: at least 12,000 feet AGL
Clouds: few clouds at 2000 feet AGL
scattered clouds at 8000 feet AGL
Weather: no significant weather observed at this time

METAR text: RJAH 060200Z 35006KT 330V030 9999 FEW020 BKN070 08/M04 Q1024
Conditions at: RJAH (HYAKURI (JASDF) , JP) observed 0200 UTC 06 December 2019
Temperature: 8.0°C (46°F)
Dewpoint: -4.0°C (25°F) [RH = 42%]
Pressure (altimeter): 30.24 inches Hg (1024.0 mb)
Winds: from the N (350 degrees) at 7 MPH (6 knots; 3.1 m/s)
Visibility: 6 or more miles (10+ km)
Ceiling: 7000 feet AGL
Clouds: few clouds at 2000 feet AGL
broken clouds at 7000 feet AGL
Weather: no significant weather observed at this time

METAR text: RJAH 060100Z 01007KT 9999 FEW020 BKN070 07/M04 Q1025
Conditions at: RJAH (HYAKURI (JASDF) , JP) observed 0100 UTC 06 December 2019
Temperature: 7.0°C (45°F)
Dewpoint: -4.0°C (25°F) [RH = 45%]
Pressure (altimeter): 30.27 inches Hg (1025.0 mb)
Winds: from the N (10 degrees) at 8 MPH (7 knots; 3.6 m/s)
Visibility: 6 or more miles (10+ km)
Ceiling: 7000 feet AGL
Clouds: few clouds at 2000 feet AGL
broken clouds at 7000 feet AGL
Weather: no significant weather observed at this time

METAR text: RJAH 060000Z 01006KT 9999 FEW020 BKN070 06/M03 Q1024
Conditions at: RJAH (HYAKURI (JASDF) , JP) observed 0000 UTC 06 December 2019
Temperature: 6.0°C (43°F)
Dewpoint: -3.0°C (27°F) [RH = 52%]
Pressure (altimeter): 30.24 inches Hg (1024.0 mb)
Winds: from the N (10 degrees) at 7 MPH (6 knots; 3.1 m/s)
Visibility: 6 or more miles (10+ km)
Ceiling: 7000 feet AGL
Clouds: few clouds at 2000 feet AGL
broken clouds at 7000 feet AGL
Weather: no significant weather observed at this time

METAR text: RJAH 052300Z 01008KT 9999 FEW020 BKN060 05/M02 Q1024
Conditions at: RJAH (HYAKURI (JASDF) , JP) observed 2300 UTC 05 December 2019
Temperature: 5.0°C (41°F)
Dewpoint: -2.0°C (28°F) [RH = 60%]
Pressure (altimeter): 30.24 inches Hg (1024.0 mb)
Winds: from the N (10 degrees) at 9 MPH (8 knots; 4.1 m/s)
Visibility: 6 or more miles (10+ km)
Ceiling: 6000 feet AGL
Clouds: few clouds at 2000 feet AGL
broken clouds at 6000 feet AGL
Weather: no significant weather observed at this time

METAR text: RJAH 052200Z 36006KT 9999 FEW020 BKN060 04/M02 Q1023
Conditions at: RJAH (HYAKURI (JASDF) , JP) observed 2200 UTC 05 December 2019
Temperature: 4.0°C (39°F)
Dewpoint: -2.0°C (28°F) [RH = 65%]
Pressure (altimeter): 30.21 inches Hg (1023.0 mb)
Winds: from the N (360 degrees) at 7 MPH (6 knots; 3.1 m/s)
Visibility: 6 or more miles (10+ km)
Ceiling: 6000 feet AGL
Clouds: few clouds at 2000 feet AGL
broken clouds at 6000 feet AGL
Weather: no significant weather observed at this time

METAR text: RJAH 052100Z 01005KT 9999 FEW030 BKN070 04/M01 Q1021
Conditions at: RJAH (HYAKURI (JASDF) , JP) observed 2100 UTC 05 December 2019
Temperature: 4.0°C (39°F)
Dewpoint: -1.0°C (30°F) [RH = 70%]
Pressure (altimeter): 30.15 inches Hg (1021.0 mb)
Winds: from the N (10 degrees) at 6 MPH (5 knots; 2.6 m/s)
Visibility: 6 or more miles (10+ km)
Ceiling: 7000 feet AGL
Clouds: few clouds at 3000 feet AGL
broken clouds at 7000 feet AGL
Weather: no significant weather observed at this time

METAR text: RJAH 052000Z 01005KT 340V040 9999 BKN070 BKN/// 03/M01 Q1021
Conditions at: RJAH (HYAKURI (JASDF) , JP) observed 2000 UTC 05 December 2019
Temperature: 3.0°C (37°F)
Dewpoint: -1.0°C (30°F) [RH = 75%]
Pressure (altimeter): 30.15 inches Hg (1021.0 mb)
Winds: from the N (10 degrees) at 6 MPH (5 knots; 2.6 m/s)
Visibility: 6 or more miles (10+ km)
Ceiling: 7000 feet AGL
Clouds: broken clouds at 7000 feet AGL
Weather: no significant weather observed at this time

METAR text: RJAH 051900Z 36004KT 9999 BKN070 BKN/// 03/M01 Q1020
Conditions at: RJAH (HYAKURI (JASDF) , JP) observed 1900 UTC 05 December 2019
Temperature: 3.0°C (37°F)
Dewpoint: -1.0°C (30°F) [RH = 75%]
Pressure (altimeter): 30.12 inches Hg (1020.0 mb)
Winds: from the N (360 degrees) at 5 MPH (4 knots; 2.1 m/s)
Visibility: 6 or more miles (10+ km)
Ceiling: 7000 feet AGL
Clouds: broken clouds at 7000 feet AGL
Weather: no significant weather observed at this time

METAR text: RJAH 051800Z 35003KT 9999 BKN070 BKN/// 03/M01 Q1020
Conditions at: RJAH (HYAKURI (JASDF) , JP) observed 1800 UTC 05 December 2019
Temperature: 3.0°C (37°F)
Dewpoint: -1.0°C (30°F) [RH = 75%]
Pressure (altimeter): 30.12 inches Hg (1020.0 mb)
Winds: from the N (350 degrees) at 3 MPH (3 knots; 1.5 m/s)
Visibility: 6 or more miles (10+ km)
Ceiling: 7000 feet AGL
Clouds: broken clouds at 7000 feet AGL
Weather: no significant weather observed at this time

METAR text: RJAH 051700Z 35004KT 9999 BKN070 BKN/// 03/M01 Q1021
Conditions at: RJAH (HYAKURI (JASDF) , JP) observed 1700 UTC 05 December 2019
Temperature: 3.0°C (37°F)
Dewpoint: -1.0°C (30°F) [RH = 75%]
Pressure (altimeter): 30.15 inches Hg (1021.0 mb)
Winds: from the N (350 degrees) at 5 MPH (4 knots; 2.1 m/s)
Visibility: 6 or more miles (10+ km)
Ceiling: 7000 feet AGL
Clouds: broken clouds at 7000 feet AGL
Weather: no significant weather observed at this time

METAR text: RJAH 051648Z 35004KT 9999 BKN070 BKN/// 03/M01 Q1021 RMK 5AC070 A3016
Conditions at: RJAH (HYAKURI (JASDF) , JP) observed 1648 UTC 05 December 2019
Temperature: 3.0°C (37°F)
Dewpoint: -1.0°C (30°F) [RH = 75%]
Pressure (altimeter): 30.15 inches Hg (1021.0 mb)
Winds: from the N (350 degrees) at 5 MPH (4 knots; 2.1 m/s)
Visibility: 6 or more miles (10+ km)
Ceiling: 7000 feet AGL
Clouds: broken clouds at 7000 feet AGL
Weather: no significant weather observed at this time

METAR text: RJAH 051600Z 35005KT 9999 FEW060 BKN/// 03/M01 Q1020
Conditions at: RJAH (HYAKURI (JASDF) , JP) observed 1600 UTC 05 December 2019
Temperature: 3.0°C (37°F)
Dewpoint: -1.0°C (30°F) [RH = 75%]
Pressure (altimeter): 30.12 inches Hg (1020.0 mb)
Winds: from the N (350 degrees) at 6 MPH (5 knots; 2.6 m/s)
Visibility: 6 or more miles (10+ km)
Ceiling: at least 12,000 feet AGL
Clouds: few clouds at 6000 feet AGL
Weather: no significant weather observed at this time

METAR text: RJAH 051500Z 36005KT 9999 FEW060 BKN/// 03/M01 Q1021
Conditions at: RJAH (HYAKURI (JASDF) , JP) observed 1500 UTC 05 December 2019
Temperature: 3.0°C (37°F)
Dewpoint: -1.0°C (30°F) [RH = 75%]
Pressure (altimeter): 30.15 inches Hg (1021.0 mb)
Winds: from the N (360 degrees) at 6 MPH (5 knots; 2.6 m/s)
Visibility: 6 or more miles (10+ km)
Ceiling: at least 12,000 feet AGL
Clouds: few clouds at 6000 feet AGL
Weather: no significant weather observed at this time

METAR text: RJAH 051400Z 36005KT 9999 FEW060 BKN/// 03/M01 Q1021
Conditions at: RJAH (HYAKURI (JASDF) , JP) observed 1400 UTC 05 December 2019
Temperature: 3.0°C (37°F)
Dewpoint: -1.0°C (30°F) [RH = 75%]
Pressure (altimeter): 30.15 inches Hg (1021.0 mb)
Winds: from the N (360 degrees) at 6 MPH (5 knots; 2.6 m/s)
Visibility: 6 or more miles (10+ km)
Ceiling: at least 12,000 feet AGL
Clouds: few clouds at 6000 feet AGL
Weather: no significant weather observed at this time

METAR text: RJAH 051300Z 02005KT 9999 FEW060 BKN/// 04/M01 Q1021
Conditions at: RJAH (HYAKURI (JASDF) , JP) observed 1300 UTC 05 December 2019
Temperature: 4.0°C (39°F)
Dewpoint: -1.0°C (30°F) [RH = 70%]
Pressure (altimeter): 30.15 inches Hg (1021.0 mb)
Winds: from the NNE (20 degrees) at 6 MPH (5 knots; 2.6 m/s)
Visibility: 6 or more miles (10+ km)
Ceiling: at least 12,000 feet AGL
Clouds: few clouds at 6000 feet AGL
Weather: no significant weather observed at this time

METAR text: RJAH 051200Z 08003KT 040V110 9999 FEW060 BKN/// 06/M01 Q1021
Conditions at: RJAH (HYAKURI (JASDF) , JP) observed 1200 UTC 05 December 2019
Temperature: 6.0°C (43°F)
Dewpoint: -1.0°C (30°F) [RH = 61%]
Pressure (altimeter): 30.15 inches Hg (1021.0 mb)
Winds: from the E (80 degrees) at 3 MPH (3 knots; 1.5 m/s)
Visibility: 6 or more miles (10+ km)
Ceiling: at least 12,000 feet AGL
Clouds: few clouds at 6000 feet AGL
Weather: no significant weather observed at this time

METAR text: RJAH 051100Z 03004KT 340V090 9999 FEW060 BKN/// 05/M01 Q1020
Conditions at: RJAH (HYAKURI (JASDF) , JP) observed 1100 UTC 05 December 2019
Temperature: 5.0°C (41°F)
Dewpoint: -1.0°C (30°F) [RH = 65%]
Pressure (altimeter): 30.12 inches Hg (1020.0 mb)
Winds: from the NNE (30 degrees) at 5 MPH (4 knots; 2.1 m/s)
Visibility: 6 or more miles (10+ km)
Ceiling: at least 12,000 feet AGL
Clouds: few clouds at 6000 feet AGL
Weather: no significant weather observed at this time

METAR text: RJAH 051000Z 36004KT 9999 FEW060 BKN/// 07/M01 Q1020
Conditions at: RJAH (HYAKURI (JASDF) , JP) observed 1000 UTC 05 December 2019
Temperature: 7.0°C (45°F)
Dewpoint: -1.0°C (30°F) [RH = 57%]
Pressure (altimeter): 30.12 inches Hg (1020.0 mb)
Winds: from the N (360 degrees) at 5 MPH (4 knots; 2.1 m/s)
Visibility: 6 or more miles (10+ km)
Ceiling: at least 12,000 feet AGL
Clouds: few clouds at 6000 feet AGL
Weather: no significant weather observed at this time

Forecast for: RJAH (HYAKURI (JASDF) , JP)
Text: TAF RJAH 061706Z 0618/0800 01005KT 9999 FEW010 BKN020
Forecast period: 1800 UTC 06 December 2019 to 0000 UTC 08 December 2019
Forecast type: FROM: standard forecast or significant change
Winds: from the N (10 degrees) at 6 MPH (5 knots; 2.6 m/s)
Visibility: 6 or more miles 10+ km)
Ceiling: 2000 feet AGL
Clouds: few clouds at 1000 feet AGL
broken clouds at 2000 feet AGL
Weather: no significant weather forecast for this period
Text: TEMPO 0703/0709 FEW005 BKN008
Forecast period: 0300 to 0900 UTC 07 December 2019
Forecast type: TEMPORARY: The following changes expected for less than half the time period
Visibility: missing
Ceiling: 800 feet AGL
Clouds: few clouds at 500 feet AGL
broken clouds at 800 feet AGL
Weather: no significant weather forecast for this period